Time;durP1;ratioP1;P1;durP2;ratioP2;P2;SDS_P1;SDS_P2;PMS_P1;PMS_P2;Temp;Humidity;BMP_temperature;BMP_pressure;BME280_temperature;BME280_humidity;BME280_pressure;Samples;Min_cycle;Max_cycle;Signal;HPM_P1;HPM_P2
2021/08/11 00:00:32;;;;;;;0.10;0.10;;;19.20;88.40;;;;;;4936924;29;20445;-73
2021/08/11 00:02:58;;;;;;;0.10;0.10;;;19.30;88.00;;;;;;4935754;29;20059;-73
2021/08/11 00:05:25;;;;;;;1.10;0.50;;;19.20;88.20;;;;;;4936868;29;20515;-73
2021/08/11 00:07:51;;;;;;;0.00;0.00;;;19.10;89.80;;;;;;4919655;29;20476;-73
2021/08/11 00:10:17;;;;;;;0.10;0.10;;;19.10;88.70;;;;;;4936830;29;20031;-73
2021/08/11 00:12:43;;;;;;;1.08;0.63;;;18.90;90.00;;;;;;4936863;29;20464;-73
2021/08/11 00:15:10;;;;;;;0.10;0.10;;;19.00;89.60;;;;;;4936497;29;20019;-73
2021/08/11 00:17:36;;;;;;;0.10;0.10;;;18.80;90.10;;;;;;4935390;29;20028;-72
2021/08/11 00:20:04;;;;;;;0.60;0.60;;;18.60;90.80;;;;;;4935617;29;20063;-73
2021/08/11 00:22:30;;;;;;;0.10;0.10;;;18.60;91.00;;;;;;4936683;29;20032;-73
2021/08/11 00:24:55;;;;;;;0.10;0.10;;;18.70;90.80;;;;;;4936486;29;20392;-73
2021/08/11 00:27:21;;;;;;;0.10;0.10;;;18.80;90.70;;;;;;4935277;29;20506;-73
2021/08/11 00:29:47;;;;;;;0.10;0.10;;;18.80;90.70;;;;;;4934840;29;20499;-73
2021/08/11 00:32:13;;;;;;;0.10;0.10;;;18.90;90.70;;;;;;4935223;29;20023;-73
2021/08/11 00:34:38;;;;;;;0.10;0.10;;;19.00;90.80;;;;;;4934993;29;20114;-73
2021/08/11 00:37:04;;;;;;;0.15;0.13;;;18.80;90.80;;;;;;4934765;29;20091;-73
2021/08/11 00:39:30;;;;;;;0.10;0.10;;;18.60;91.60;;;;;;4935571;29;20510;-73
2021/08/11 00:41:56;;;;;;;0.10;0.10;;;18.60;92.00;;;;;;4936248;29;20031;-72
2021/08/11 00:44:21;;;;;;;0.10;0.10;;;18.50;92.90;;;;;;4934828;29;20043;-73
2021/08/11 00:46:50;;;;;;;0.60;0.60;;;18.50;93.20;;;;;;4936263;29;20032;-73
2021/08/11 00:49:17;;;;;;;0.10;0.10;;;18.80;93.20;;;;;;4934709;29;20042;-73
2021/08/11 00:51:43;;;;;;;0.10;0.10;;;18.90;92.90;;;;;;4934951;29;20028;-73
2021/08/11 00:54:11;;;;;;;0.10;0.10;;;19.00;93.10;;;;;;4936009;29;20020;-73
2021/08/11 00:56:38;;;;;;;0.10;0.10;;;19.10;93.90;;;;;;4936032;29;20432;-73
2021/08/11 00:59:05;;;;;;;0.82;0.82;;;19.20;95.40;;;;;;4935658;29;20399;-73
2021/08/11 01:01:34;;;;;;;0.10;0.10;;;19.30;96.20;;;;;;4935926;29;20027;-73
2021/08/11 01:04:01;;;;;;;0.10;0.10;;;19.20;96.50;;;;;;4934519;29;20028;-73
2021/08/11 01:06:30;;;;;;;0.10;0.10;;;19.20;98.00;;;;;;4934541;29;20036;-73
2021/08/11 01:08:57;;;;;;;0.20;0.20;;;19.10;98.20;;;;;;4935568;29;20020;-73
2021/08/11 01:11:24;;;;;;;0.10;0.10;;;19.00;99.40;;;;;;4935721;29;20024;-72
2021/08/11 01:13:51;;;;;;;0.00;0.00;;;19.00;99.90;;;;;;4935711;29;20369;-73
2021/08/11 01:16:17;;;;;;;0.10;0.10;;;19.10;99.90;;;;;;4935737;29;20365;-72
2021/08/11 01:18:43;;;;;;;0.98;0.40;;;19.40;99.90;;;;;;4935465;29;20038;-73
2021/08/11 01:21:15;;;;;;;0.10;0.10;;;19.30;99.90;;;;;;4935460;29;20027;-72
2021/08/11 01:23:50;;;;;;;;;;;19.10;99.90;;;;;;4935906;29;20103;-73
2021/08/11 01:26:57;;;;;;;0.10;0.10;;;19.10;99.90;;;;;;4934585;29;19907;-73
2021/08/11 01:29:37;;;;;;;0.10;0.10;;;19.10;99.90;;;;;;4935139;29;20032;-73
2021/08/11 01:32:23;;;;;;;0.10;0.10;;;19.00;99.90;;;;;;4935300;29;20126;-73
2021/08/11 01:34:51;;;;;;;0.32;0.32;;;18.80;99.90;;;;;;4933663;29;20103;-73
2021/08/11 01:37:24;;;;;;;0.10;0.10;;;18.50;99.90;;;;;;4934142;29;20400;-73
2021/08/11 01:39:55;;;;;;;0.10;0.10;;;18.40;99.90;;;;;;4935150;29;20365;-72
2021/08/11 01:42:33;;;;;;;0.10;0.10;;;18.40;99.90;;;;;;4934252;29;20035;-73
2021/08/11 01:45:01;;;;;;;0.00;0.00;;;18.50;99.90;;;;;;4933967;29;20275;-73
2021/08/11 01:47:36;;;;;;;0.00;0.00;;;18.50;99.90;;;;;;4933844;29;20148;-73
2021/08/11 01:50:02;;;;;;;0.20;0.20;;;18.70;99.90;;;;;;4934702;29;20463;-72
2021/08/11 01:52:28;;;;;;;0.10;0.10;;;18.40;99.90;;;;;;4934099;29;20023;-73
2021/08/11 01:54:54;;;;;;;0.10;0.10;;;18.50;99.90;;;;;;4934938;29;20035;-73
2021/08/11 01:57:20;;;;;;;0.10;0.10;;;18.50;99.90;;;;;;4933751;29;20020;-73
2021/08/11 01:59:47;;;;;;;0.10;0.10;;;18.50;99.90;;;;;;4933722;29;20166;-73
2021/08/11 02:02:14;;;;;;;0.13;0.13;;;18.50;99.90;;;;;;4933609;29;20111;-73
2021/08/11 02:04:41;;;;;;;0.10;0.10;;;18.50;99.90;;;;;;4934869;29;20027;-73
2021/08/11 02:07:08;;;;;;;0.10;0.10;;;18.30;99.90;;;;;;4933742;29;20042;-73
2021/08/11 02:09:36;;;;;;;0.10;0.10;;;18.30;99.90;;;;;;4934597;29;20380;-73
2021/08/11 02:12:02;;;;;;;0.20;0.20;;;18.20;99.90;;;;;;4934737;29;20455;-73
2021/08/11 02:14:28;;;;;;;0.10;0.10;;;18.30;99.90;;;;;;4934841;29;20060;-73
2021/08/11 02:16:54;;;;;;;0.10;0.10;;;18.40;99.90;;;;;;4934788;29;20523;-73
2021/08/11 02:19:20;;;;;;;0.10;0.10;;;18.40;99.90;;;;;;4934726;29;20111;-73
2021/08/11 02:21:46;;;;;;;0.10;0.10;;;18.30;99.90;;;;;;4934739;29;20115;-72
2021/08/11 02:24:12;;;;;;;0.10;0.10;;;18.40;99.90;;;;;;4934641;29;20488;-73
2021/08/11 02:26:52;;;;;;;0.10;0.10;;;18.60;99.90;;;;;;4934597;29;20031;-73
2021/08/11 02:29:29;;;;;;;0.10;0.10;;;18.70;99.90;;;;;;4933319;29;20388;-73
2021/08/11 02:32:10;;;;;;;0.10;0.10;;;18.70;99.90;;;;;;4917522;29;20023;-72
2021/08/11 02:35:01;;;;;;;0.10;0.10;;;18.40;99.90;;;;;;4934557;29;20032;-73
2021/08/11 02:37:51;;;;;;;0.10;0.10;;;18.20;99.90;;;;;;4946748;23;20040;-75
2021/08/11 02:40:31;;;;;;;0.10;0.10;;;18.20;99.90;;;;;;4915228;29;20040;-76
2021/08/11 02:43:17;;;;;;;0.10;0.10;;;18.20;99.90;;;;;;4934610;29;20027;-76
2021/08/11 02:45:49;;;;;;;0.10;0.10;;;18.40;99.90;;;;;;4934497;29;20056;-75
2021/08/11 02:48:15;;;;;;;0.08;0.08;;;18.60;99.90;;;;;;4934416;29;20036;-76
2021/08/11 02:50:42;;;;;;;0.15;0.15;;;18.40;99.90;;;;;;4934290;29;20031;-76
2021/08/11 02:53:10;;;;;;;0.10;0.10;;;18.20;99.90;;;;;;4934608;29;20106;-76
2021/08/11 02:55:37;;;;;;;0.10;0.10;;;18.20;99.90;;;;;;4933029;29;20327;-76
2021/08/11 02:58:04;;;;;;;0.10;0.10;;;18.20;99.90;;;;;;4934322;29;20074;-76
2021/08/11 03:00:31;;;;;;;0.10;0.10;;;18.20;99.90;;;;;;4932854;29;20039;-76
2021/08/11 03:02:57;;;;;;;0.20;0.20;;;18.10;99.90;;;;;;4937895;29;20024;-76
2021/08/11 03:05:23;;;;;;;0.10;0.10;;;18.00;99.90;;;;;;4936720;29;20032;-76
2021/08/11 03:07:49;;;;;;;0.00;0.00;;;18.00;99.90;;;;;;4937870;29;20031;-76
2021/08/11 03:10:15;;;;;;;0.10;0.10;;;18.10;99.90;;;;;;4920737;29;20028;-76
2021/08/11 03:12:47;;;;;;;0.10;0.10;;;18.20;99.90;;;;;;4920817;29;20132;-76
2021/08/11 03:15:15;;;;;;;0.10;0.10;;;18.10;99.90;;;;;;4937950;29;20118;-76
2021/08/11 03:17:41;;;;;;;0.17;0.17;;;18.10;99.90;;;;;;4936283;29;20034;-76
2021/08/11 03:20:08;;;;;;;0.20;0.20;;;18.00;99.90;;;;;;4936611;29;20059;-76
2021/08/11 03:22:34;;;;;;;0.75;0.63;;;18.00;99.90;;;;;;4937641;29;20024;-76
2021/08/11 03:25:00;;;;;;;0.55;0.32;;;18.10;99.90;;;;;;4936372;29;20367;-75
2021/08/11 03:27:26;;;;;;;0.10;0.10;;;18.10;99.90;;;;;;4937645;29;20024;-76
2021/08/11 03:29:52;;;;;;;0.20;0.20;;;18.00;99.90;;;;;;4937405;29;20083;-76
2021/08/11 03:32:17;;;;;;;0.20;0.20;;;18.00;99.90;;;;;;4936313;29;20056;-76
2021/08/11 03:34:43;;;;;;;0.10;0.10;;;18.00;99.90;;;;;;4937499;29;20047;-76
2021/08/11 03:37:13;;;;;;;0.10;0.10;;;18.20;99.90;;;;;;4937417;29;20164;-76
2021/08/11 03:39:39;;;;;;;0.10;0.10;;;18.30;99.90;;;;;;4937348;29;20023;-75
2021/08/11 03:42:05;;;;;;;0.13;0.13;;;18.30;99.90;;;;;;4936220;29;20031;-75
2021/08/11 03:44:30;;;;;;;4.00;0.80;;;18.20;99.90;;;;;;4936105;29;20023;-75
2021/08/11 03:46:56;;;;;;;0.85;0.85;;;18.30;99.90;;;;;;4936145;29;20028;-75
2021/08/11 03:49:22;;;;;;;0.10;0.10;;;18.20;99.90;;;;;;4919939;29;20036;-75
2021/08/11 03:51:48;;;;;;;0.10;0.10;;;18.10;99.90;;;;;;4937156;29;20388;-75
2021/08/11 03:54:13;;;;;;;0.10;0.10;;;17.90;99.90;;;;;;4935899;29;20020;-75
2021/08/11 03:56:39;;;;;;;0.17;0.17;;;17.80;99.90;;;;;;4937144;29;20182;-75
2021/08/11 03:59:05;;;;;;;0.05;0.05;;;17.60;99.90;;;;;;4937010;29;20032;-75
2021/08/11 04:01:31;;;;;;;0.10;0.10;;;17.40;99.90;;;;;;4935544;29;20051;-76
2021/08/11 04:03:57;;;;;;;0.10;0.10;;;17.40;99.90;;;;;;4936999;29;20027;-75
2021/08/11 04:06:22;;;;;;;0.10;0.10;;;17.20;99.90;;;;;;4935663;29;20495;-75
2021/08/11 04:08:48;;;;;;;0.10;0.10;;;17.40;99.90;;;;;;4936709;29;20369;-75
2021/08/11 04:11:14;;;;;;;0.10;0.10;;;17.50;99.90;;;;;;4935699;29;20024;-76
2021/08/11 04:13:40;;;;;;;0.10;0.10;;;17.50;99.90;;;;;;4935223;29;20028;-75
2021/08/11 04:16:05;;;;;;;0.32;0.32;;;17.50;99.90;;;;;;4936728;29;20087;-76
2021/08/11 04:18:31;;;;;;;0.60;0.60;;;17.40;99.90;;;;;;4935393;29;20484;-76
2021/08/11 04:20:57;;;;;;;0.10;0.10;;;17.20;99.90;;;;;;4936785;29;20462;-76
2021/08/11 04:23:23;;;;;;;0.10;0.10;;;17.10;99.90;;;;;;4935357;29;20032;-75
2021/08/11 04:25:49;;;;;;;0.10;0.10;;;17.20;99.90;;;;;;4935223;29;20055;-76
2021/08/11 04:28:14;;;;;;;0.10;0.10;;;17.30;99.90;;;;;;4919208;29;20028;-76
2021/08/11 04:30:41;;;;;;;1.13;0.77;;;17.10;99.90;;;;;;4935198;29;20028;-75
2021/08/11 04:33:07;;;;;;;1.95;0.50;;;17.00;99.90;;;;;;4919371;29;20208;-76
2021/08/11 04:35:32;;;;;;;0.17;0.17;;;16.70;99.90;;;;;;4935129;29;20110;-75
2021/08/11 04:37:58;;;;;;;0.10;0.10;;;16.60;99.90;;;;;;4919100;29;20074;-76
2021/08/11 04:40:24;;;;;;;0.20;0.20;;;16.70;99.90;;;;;;4936328;29;20043;-76
2021/08/11 04:42:50;;;;;;;0.10;0.10;;;16.80;99.90;;;;;;4934951;29;20027;-75
2021/08/11 04:45:16;;;;;;;0.10;0.10;;;16.80;99.90;;;;;;4934882;29;20395;-75
2021/08/11 04:47:42;;;;;;;0.10;0.10;;;16.90;99.90;;;;;;4934634;29;20396;-76
2021/08/11 04:50:08;;;;;;;0.73;0.45;;;17.00;99.90;;;;;;4918865;29;20031;-75
2021/08/11 04:52:34;;;;;;;0.10;0.10;;;17.00;99.90;;;;;;4934729;29;20439;-76
2021/08/11 04:55:02;;;;;;;0.15;0.15;;;17.00;99.90;;;;;;4936032;29;20060;-76
2021/08/11 04:57:27;;;;;;;0.10;0.10;;;17.00;99.90;;;;;;4934647;29;20518;-76
2021/08/11 04:59:53;;;;;;;0.10;0.10;;;17.20;99.90;;;;;;4935761;29;20059;-76
2021/08/11 05:02:19;;;;;;;0.20;0.20;;;17.20;99.90;;;;;;4934675;29;20032;-76
2021/08/11 05:04:45;;;;;;;3.17;2.97;;;17.00;99.90;;;;;;4933945;29;20110;-76
2021/08/11 05:07:10;;;;;;;0.10;0.10;;;16.90;99.90;;;;;;4931879;29;20086;-75
2021/08/11 05:09:36;;;;;;;0.40;0.40;;;16.70;99.90;;;;;;4945638;28;20064;-76
2021/08/11 05:12:02;;;;;;;0.55;0.55;;;16.70;99.90;;;;;;4941525;29;20132;-76
2021/08/11 05:14:29;;;;;;;0.30;0.30;;;16.50;99.90;;;;;;4944439;29;20484;-76
2021/08/11 05:16:55;;;;;;;0.35;0.32;;;16.40;99.90;;;;;;4947161;29;20027;-76
2021/08/11 05:19:20;;;;;;;0.10;0.10;;;16.50;99.90;;;;;;4939513;29;20024;-76
2021/08/11 05:21:46;;;;;;;0.10;0.10;;;16.70;99.90;;;;;;4935946;29;20035;-76
2021/08/11 05:24:12;;;;;;;0.10;0.10;;;17.10;99.90;;;;;;4938169;29;20045;-76
2021/08/11 05:26:41;;;;;;;0.10;0.10;;;17.40;99.90;;;;;;4938888;29;20038;-76
2021/08/11 05:29:07;;;;;;;0.10;0.10;;;17.50;99.90;;;;;;4946753;29;20063;-76
2021/08/11 05:31:33;;;;;;;0.10;0.10;;;17.70;99.90;;;;;;4939265;29;20034;-76
2021/08/11 05:33:59;;;;;;;0.10;0.10;;;17.60;99.90;;;;;;4938727;29;20034;-76
2021/08/11 05:36:25;;;;;;;0.85;0.85;;;17.50;99.90;;;;;;4938506;29;20051;-76
2021/08/11 05:38:51;;;;;;;0.30;0.30;;;17.60;99.90;;;;;;4937266;29;20042;-76
2021/08/11 05:41:16;;;;;;;0.10;0.10;;;17.50;99.90;;;;;;4941786;29;20032;-76
2021/08/11 05:43:42;;;;;;;0.45;0.45;;;17.60;99.90;;;;;;4933753;29;20388;-76
2021/08/11 05:46:08;;;;;;;0.10;0.10;;;17.80;99.90;;;;;;4941624;29;20058;-76
2021/08/11 05:48:34;;;;;;;0.10;0.10;;;18.00;99.90;;;;;;4938386;29;20035;-76
2021/08/11 05:50:59;;;;;;;0.10;0.10;;;18.00;99.90;;;;;;4938593;29;20075;-76
2021/08/11 05:53:25;;;;;;;0.10;0.10;;;18.00;99.90;;;;;;4935562;28;20019;-76
2021/08/11 05:55:51;;;;;;;0.10;0.10;;;18.10;99.90;;;;;;4947498;29;20411;-76
2021/08/11 05:58:17;;;;;;;0.10;0.10;;;18.20;99.90;;;;;;4945211;29;20123;-76
2021/08/11 06:00:43;;;;;;;5.47;1.65;;;18.30;99.90;;;;;;4941844;28;20107;-76
2021/08/11 06:03:08;;;;;;;0.10;0.10;;;18.40;99.90;;;;;;4933745;29;20023;-76
2021/08/11 06:05:35;;;;;;;0.10;0.10;;;18.50;99.90;;;;;;4943751;28;20027;-76
2021/08/11 06:08:02;;;;;;;0.00;0.00;;;18.70;99.90;;;;;;4937469;29;20023;-76
2021/08/11 06:10:28;;;;;;;3.08;0.68;;;18.70;99.90;;;;;;4938372;29;20034;-77
2021/08/11 06:12:53;;;;;;;0.22;0.22;;;18.80;99.90;;;;;;4946284;29;20391;-76
2021/08/11 06:15:20;;;;;;;0.10;0.10;;;18.90;99.90;;;;;;4943892;29;20392;-76
2021/08/11 06:17:47;;;;;;;0.20;0.20;;;19.00;99.90;;;;;;4935524;28;20024;-76
2021/08/11 06:20:16;;;;;;;0.30;0.30;;;19.00;99.90;;;;;;4932810;29;20083;-76
2021/08/11 06:22:42;;;;;;;0.63;0.63;;;19.10;99.90;;;;;;4943590;29;20502;-76
2021/08/11 06:25:09;;;;;;;0.10;0.10;;;19.20;99.90;;;;;;4942262;29;20409;-76
2021/08/11 06:27:35;;;;;;;0.10;0.10;;;19.30;99.90;;;;;;4944779;28;20061;-76
2021/08/11 06:30:01;;;;;;;0.10;0.10;;;19.40;99.90;;;;;;4932701;29;20055;-76
2021/08/11 06:32:27;;;;;;;0.10;0.10;;;19.50;99.90;;;;;;4945268;29;20168;-76
2021/08/11 06:34:53;;;;;;;0.10;0.10;;;19.70;99.90;;;;;;4942232;29;20027;-76
2021/08/11 06:37:19;;;;;;;0.10;0.10;;;19.90;99.90;;;;;;4948715;29;20028;-76
2021/08/11 06:39:44;;;;;;;0.10;0.10;;;19.90;99.90;;;;;;4930330;29;20027;-76
2021/08/11 06:42:10;;;;;;;0.10;0.10;;;20.00;99.90;;;;;;4938180;29;20028;-76
2021/08/11 06:44:36;;;;;;;0.10;0.10;;;20.20;99.90;;;;;;4946715;29;20019;-76
2021/08/11 06:47:02;;;;;;;0.08;0.08;;;20.30;99.90;;;;;;4923860;29;20396;-76
2021/08/11 06:49:28;;;;;;;0.00;0.00;;;20.60;99.90;;;;;;4946998;29;20531;-76
2021/08/11 06:51:53;;;;;;;0.10;0.10;;;20.70;99.90;;;;;;4955885;28;20113;-76
2021/08/11 06:54:19;;;;;;;0.10;0.10;;;20.90;99.90;;;;;;4942244;28;20084;-76
2021/08/11 06:56:45;;;;;;;0.10;0.10;;;20.90;99.90;;;;;;4950723;29;20451;-76
2021/08/11 06:59:10;;;;;;;0.10;0.10;;;21.00;99.90;;;;;;4949971;29;20042;-77
2021/08/11 07:01:36;;;;;;;0.00;0.00;;;21.10;99.90;;;;;;4951313;29;20027;-78
2021/08/11 07:04:02;;;;;;;0.10;0.10;;;21.10;99.90;;;;;;4928086;29;20039;-78
2021/08/11 07:06:28;;;;;;;0.00;0.00;;;21.10;99.90;;;;;;4929922;29;20023;-78
2021/08/11 07:08:54;;;;;;;0.00;0.00;;;21.20;99.90;;;;;;4933393;29;20054;-78
2021/08/11 07:11:20;;;;;;;0.00;0.00;;;21.30;99.90;;;;;;4930961;29;20387;-78
2021/08/11 07:13:45;;;;;;;0.57;0.57;;;21.50;99.90;;;;;;4945721;29;20020;-78
2021/08/11 07:16:11;;;;;;;0.10;0.10;;;21.70;99.90;;;;;;4942702;29;20019;-78
2021/08/11 07:18:37;;;;;;;0.10;0.10;;;21.70;99.90;;;;;;4948046;29;20831;-78
2021/08/11 07:21:03;;;;;;;0.00;0.00;;;21.90;99.90;;;;;;4935338;29;20112;-78
2021/08/11 07:23:29;;;;;;;0.00;0.00;;;22.00;99.90;;;;;;4947971;29;20116;-78
2021/08/11 07:25:55;;;;;;;0.10;0.10;;;22.10;99.90;;;;;;4952787;29;20120;-78
2021/08/11 07:28:20;;;;;;;0.10;0.10;;;22.20;99.90;;;;;;4928952;29;20123;-78
2021/08/11 07:30:47;;;;;;;0.08;0.08;;;22.20;99.20;;;;;;4941393;29;20110;-78
2021/08/11 07:33:13;;;;;;;0.20;0.20;;;22.20;96.90;;;;;;4943669;29;20027;-78
2021/08/11 07:35:39;;;;;;;0.08;0.08;;;22.10;96.90;;;;;;4933837;29;20027;-78
2021/08/11 07:38:06;;;;;;;0.03;0.03;;;22.20;95.30;;;;;;4960962;29;20046;-78
2021/08/11 07:40:32;;;;;;;0.70;0.28;;;22.30;95.80;;;;;;4933090;29;20050;-78
2021/08/11 07:42:59;;;;;;;0.47;0.47;;;22.30;96.10;;;;;;4958634;29;20035;-78
2021/08/11 07:45:26;;;;;;;0.00;0.00;;;22.40;95.50;;;;;;4947737;29;20032;-78
2021/08/11 07:47:54;;;;;;;0.10;0.10;;;22.60;96.00;;;;;;4951695;28;20039;-78
2021/08/11 07:50:22;;;;;;;0.10;0.10;;;22.80;94.60;;;;;;4949452;29;20046;-78
2021/08/11 07:52:48;;;;;;;0.00;0.00;;;23.00;92.40;;;;;;4948246;29;20030;-79
2021/08/11 07:55:15;;;;;;;0.30;0.30;;;23.10;91.20;;;;;;4944924;29;20028;-78
2021/08/11 07:57:41;;;;;;;0.10;0.10;;;23.20;91.40;;;;;;4948860;29;20071;-78
2021/08/11 08:00:09;;;;;;;0.00;0.00;;;23.40;90.00;;;;;;4957340;29;20027;-79
2021/08/11 08:02:35;;;;;;;0.00;0.00;;;23.60;90.50;;;;;;4957504;29;20024;-79
2021/08/11 08:05:03;;;;;;;0.10;0.10;;;23.60;90.20;;;;;;4955405;29;20519;-79
2021/08/11 08:07:29;;;;;;;0.03;0.03;;;23.60;89.20;;;;;;4956313;28;20027;-79
2021/08/11 08:09:56;;;;;;;2.92;1.17;;;23.80;88.30;;;;;;4954174;29;20027;-79
2021/08/11 08:12:21;;;;;;;0.10;0.10;;;23.90;86.70;;;;;;4960255;29;20390;-79
2021/08/11 08:14:47;;;;;;;1.40;0.20;;;24.00;86.20;;;;;;4940575;29;20055;-79
2021/08/11 08:17:13;;;;;;;0.00;0.00;;;24.20;85.70;;;;;;4950534;29;20122;-79
2021/08/11 08:19:39;;;;;;;1.10;0.88;;;24.10;86.10;;;;;;4949427;29;20032;-79
2021/08/11 08:22:04;;;;;;;0.00;0.00;;;24.20;84.30;;;;;;4949604;29;20031;-78
2021/08/11 08:24:32;;;;;;;0.88;0.52;;;24.30;83.70;;;;;;4932921;29;20034;-79
2021/08/11 08:27:02;;;;;;;0.00;0.00;;;24.40;80.80;;;;;;4928520;29;20046;-78
2021/08/11 08:29:27;;;;;;;0.00;0.00;;;24.40;82.20;;;;;;4945530;29;20019;-78
2021/08/11 08:31:54;;;;;;;0.00;0.00;;;24.50;80.90;;;;;;4944222;29;20035;-79
2021/08/11 08:34:20;;;;;;;0.10;0.10;;;24.60;79.10;;;;;;4948874;29;20024;-78
2021/08/11 08:36:46;;;;;;;0.00;0.00;;;24.70;77.30;;;;;;4952910;29;20079;-78
2021/08/11 08:39:12;;;;;;;0.00;0.00;;;24.90;76.70;;;;;;4936727;29;20038;-78
2021/08/11 08:41:42;;;;;;;0.00;0.00;;;25.00;76.40;;;;;;4951138;29;20033;-78
2021/08/11 08:44:08;;;;;;;0.00;0.00;;;25.10;75.80;;;;;;4946927;29;20098;-78
2021/08/11 08:46:34;;;;;;;1.08;0.22;;;25.30;75.90;;;;;;4951957;29;20035;-78
2021/08/11 08:49:02;;;;;;;0.00;0.00;;;25.10;76.10;;;;;;4960002;29;20031;-78
2021/08/11 08:51:30;;;;;;;0.00;0.00;;;25.20;76.80;;;;;;4948825;29;20027;-78
2021/08/11 08:53:56;;;;;;;0.10;0.10;;;25.40;77.20;;;;;;4942612;29;20112;-78
2021/08/11 08:56:21;;;;;;;0.00;0.00;;;25.60;75.80;;;;;;4948090;29;20515;-78
2021/08/11 08:58:47;;;;;;;0.00;0.00;;;25.60;75.40;;;;;;4948842;29;20098;-78
2021/08/11 09:01:13;;;;;;;0.38;0.30;;;26.10;73.40;;;;;;4950881;29;20038;-78
2021/08/11 09:03:40;;;;;;;0.90;0.22;;;26.00;71.90;;;;;;4955072;29;20051;-79
2021/08/11 09:06:06;;;;;;;0.47;0.40;;;26.20;72.00;;;;;;4939037;29;20023;-80
2021/08/11 09:08:32;;;;;;;0.10;0.10;;;26.60;69.60;;;;;;4942925;29;20038;-79
2021/08/11 09:10:58;;;;;;;0.03;0.03;;;26.70;69.20;;;;;;4937681;23;20387;-78
2021/08/11 09:13:24;;;;;;;0.00;0.00;;;26.80;68.50;;;;;;4920260;29;20024;-78
2021/08/11 09:16:03;;;;;;;0.60;0.25;;;27.00;66.90;;;;;;4937587;29;20078;-79
2021/08/11 09:18:29;;;;;;;0.10;0.10;;;27.10;66.50;;;;;;4915504;29;20025;-79
2021/08/11 09:21:03;;;;;;;0.38;0.20;;;27.30;66.50;;;;;;4911745;29;20139;-79
2021/08/11 09:23:44;;;;;;;0.00;0.00;;;27.50;65.50;;;;;;4932837;29;20044;-78
2021/08/11 09:26:12;;;;;;;0.22;0.22;;;27.40;64.50;;;;;;4910582;29;20042;-79
2021/08/11 09:28:40;;;;;;;0.20;0.20;;;27.40;64.10;;;;;;4910953;29;20040;-78
2021/08/11 09:31:24;;;;;;;0.00;0.00;;;27.50;64.30;;;;;;4928565;29;20117;-78
2021/08/11 09:33:55;;;;;;;1.48;1.38;;;27.30;64.40;;;;;;4929014;29;20107;-79
2021/08/11 09:36:22;;;;;;;0.15;0.08;;;27.30;64.40;;;;;;4940847;29;20023;-78
2021/08/11 09:39:01;;;;;;;0.32;0.30;;;27.70;65.00;;;;;;4914397;29;20055;-79
2021/08/11 09:41:27;;;;;;;0.20;0.20;;;27.70;63.50;;;;;;4930073;29;20035;-79
2021/08/11 09:44:08;;;;;;;0.28;0.28;;;27.60;63.80;;;;;;4938197;29;20028;-79
2021/08/11 09:46:35;;;;;;;0.00;0.00;;;27.50;64.30;;;;;;4924442;29;20028;-78
2021/08/11 09:49:01;;;;;;;0.25;0.20;;;27.90;63.30;;;;;;4928460;29;20084;-79
2021/08/11 09:51:27;;;;;;;0.10;0.10;;;28.40;61.20;;;;;;4919170;29;20510;-79
2021/08/11 09:53:52;;;;;;;8.55;2.75;;;27.90;62.50;;;;;;4940268;29;20024;-78
2021/08/11 09:56:18;;;;;;;0.38;0.10;;;27.70;63.40;;;;;;4921767;29;20443;-79
2021/08/11 09:58:59;;;;;;;0.00;0.00;;;28.00;62.10;;;;;;4916807;29;20392;-76
2021/08/11 10:01:26;;;;;;;0.00;0.00;;;28.40;60.60;;;;;;4922796;29;20032;-75
2021/08/11 10:04:01;;;;;;;0.32;0.32;;;28.70;60.20;;;;;;4913099;29;20056;-76
2021/08/11 10:06:39;;;;;;;0.00;0.00;;;28.70;60.20;;;;;;4926575;29;20395;-75
2021/08/11 10:09:16;;;;;;;0.32;0.20;;;28.60;59.00;;;;;;4922269;29;20031;-76
2021/08/11 10:11:47;;;;;;;0.10;0.10;;;28.70;59.80;;;;;;4926516;29;20471;-76
2021/08/11 10:14:15;;;;;;;1.35;0.60;;;28.80;60.60;;;;;;4918485;29;20023;-76
2021/08/11 10:16:42;;;;;;;0.00;0.00;;;28.80;59.60;;;;;;4932860;29;20035;-75
2021/08/11 10:19:09;;;;;;;0.13;0.13;;;28.70;61.00;;;;;;4933245;29;20024;-76
2021/08/11 10:22:00;;;;;;;1.65;1.23;;;29.20;58.90;;;;;;4918095;29;20480;-75
2021/08/11 10:24:28;;;;;;;0.20;0.20;;;29.30;59.40;;;;;;4922773;29;20028;-75
2021/08/11 10:26:54;;;;;;;2.47;1.55;;;29.60;57.60;;;;;;4915567;29;20054;-76
2021/08/11 10:29:20;;;;;;;0.10;0.10;;;29.20;57.20;;;;;;4931382;29;20332;-76
2021/08/11 10:31:47;;;;;;;0.00;0.00;;;29.20;57.20;;;;;;4920894;29;20020;-75
2021/08/11 10:34:15;;;;;;;0.00;0.00;;;29.40;57.80;;;;;;4925937;29;20488;-75
2021/08/11 10:36:42;;;;;;;0.10;0.10;;;29.80;56.60;;;;;;4922682;29;20031;-76
2021/08/11 10:39:08;;;;;;;0.00;0.00;;;29.90;56.80;;;;;;4924725;29;20514;-75
2021/08/11 10:41:37;;;;;;;0.03;0.03;;;30.30;55.70;;;;;;4918674;29;20055;-77
2021/08/11 10:44:05;;;;;;;0.00;0.00;;;30.40;55.00;;;;;;4900127;29;20087;-76
2021/08/11 10:46:43;;;;;;;0.00;0.00;;;30.60;54.80;;;;;;4925186;29;20027;-77
2021/08/11 10:49:16;;;;;;;0.35;0.35;;;30.50;54.90;;;;;;4899635;29;20123;-76
2021/08/11 10:51:44;;;;;;;0.10;0.10;;;30.60;54.30;;;;;;4924428;29;20032;-77
2021/08/11 10:54:10;;;;;;;1.55;0.63;;;30.50;54.00;;;;;;4923163;29;20024;-76
2021/08/11 10:56:54;;;;;;;0.00;0.00;;;30.80;54.70;;;;;;4922324;29;20408;-77
2021/08/11 10:59:28;;;;;;;0.22;0.22;;;31.30;54.40;;;;;;4919262;29;20107;-77
2021/08/11 11:01:54;;;;;;;0.50;0.45;;;30.80;55.10;;;;;;4920094;29;20024;-77
2021/08/11 11:04:42;;;;;;;0.28;0.28;;;31.00;54.20;;;;;;4918140;29;20411;-77
2021/08/11 11:09:38;;;;;;;0.00;0.00;;;31.20;54.10;;;;;;4924143;29;20075;-76
2021/08/11 11:12:16;;;;;;;0.10;0.10;;;31.10;53.70;;;;;;4898638;29;20036;-77
2021/08/11 11:14:52;;;;;;;0.10;0.10;;;31.20;55.10;;;;;;4908884;29;20440;-77
2021/08/11 11:17:25;;;;;;;0.35;0.35;;;31.50;54.20;;;;;;4916175;29;20023;-76
2021/08/11 11:20:03;;;;;;;0.17;0.17;;;31.30;54.30;;;;;;4918545;29;20067;-77
2021/08/11 11:22:42;;;;;;;0.55;0.52;;;30.90;54.90;;;;;;4926146;29;20504;-77
2021/08/11 11:25:14;;;;;;;0.52;0.20;;;31.00;54.70;;;;;;4912872;29;20032;-77
2021/08/11 11:27:52;;;;;;;0.38;0.38;;;30.80;55.10;;;;;;4926152;29;20102;-77
2021/08/11 11:30:27;;;;;;;0.00;0.00;;;30.70;56.00;;;;;;4924754;29;20082;-76
2021/08/11 11:32:54;;;;;;;0.00;0.00;;;30.30;55.70;;;;;;4934282;29;20171;-77
2021/08/11 11:35:21;;;;;;;1.02;0.90;;;30.40;55.00;;;;;;4916241;29;20027;-77
2021/08/11 11:38:06;;;;;;;0.00;0.00;;;30.40;55.90;;;;;;4916207;29;20023;-76
2021/08/11 11:40:33;;;;;;;0.45;0.32;;;30.40;55.70;;;;;;4928967;29;20077;-76
2021/08/11 11:43:27;;;;;;;0.00;0.00;;;30.90;54.80;;;;;;4924656;29;20032;-77
2021/08/11 11:45:54;;;;;;;0.52;0.30;;;31.30;53.90;;;;;;4924839;29;20484;-77
2021/08/11 11:48:20;;;;;;;0.80;0.40;;;31.60;52.70;;;;;;4931983;29;20502;-76
2021/08/11 11:50:49;;;;;;;0.52;0.13;;;31.60;52.90;;;;;;4924971;29;20035;-76
2021/08/11 11:53:27;;;;;;;0.20;0.20;;;31.20;52.70;;;;;;4919628;29;20028;-76
2021/08/11 11:55:53;;;;;;;0.30;0.30;;;30.90;54.20;;;;;;4920600;29;20020;-76
2021/08/11 11:58:21;;;;;;;0.00;0.00;;;30.50;53.60;;;;;;4926938;29;20024;-76
2021/08/11 12:00:56;;;;;;;0.10;0.10;;;30.10;53.60;;;;;;4934841;29;20020;-77
2021/08/11 12:03:32;;;;;;;0.28;0.28;;;30.20;54.30;;;;;;4928292;29;20087;-77
2021/08/11 12:05:58;;;;;;;0.00;0.00;;;30.50;53.70;;;;;;4923866;29;20376;-76
2021/08/11 12:08:25;;;;;;;0.17;0.03;;;30.90;53.30;;;;;;4924509;29;20034;-76
2021/08/11 12:11:00;;;;;;;0.52;0.13;;;31.20;52.70;;;;;;4931237;29;20115;-77
2021/08/11 12:13:37;;;;;;;0.85;0.20;;;30.80;53.00;;;;;;4925589;29;20028;-76
2021/08/11 12:16:03;;;;;;;0.40;0.40;;;30.80;53.30;;;;;;4928025;29;20083;-77
2021/08/11 12:18:28;;;;;;;0.88;0.20;;;30.50;53.30;;;;;;4932814;29;20028;-76
2021/08/11 12:21:01;;;;;;;0.88;0.60;;;30.50;53.30;;;;;;4929419;29;20052;-77
2021/08/11 12:23:30;;;;;;;0.50;0.50;;;30.50;52.30;;;;;;4930586;29;20020;-75
2021/08/11 12:25:56;;;;;;;0.20;0.20;;;30.70;50.90;;;;;;4937543;29;20055;-76
2021/08/11 12:28:32;;;;;;;0.10;0.10;;;30.60;49.90;;;;;;4929099;29;20259;-77
2021/08/11 12:31:23;;;;;;;0.30;0.22;;;30.50;49.80;;;;;;4931246;29;20196;-77
2021/08/11 12:33:51;;;;;;;0.65;0.65;;;30.50;49.20;;;;;;4919025;29;20037;-76
2021/08/11 12:36:23;;;;;;;0.40;0.30;;;30.40;49.30;;;;;;4928587;29;20020;-77
2021/08/11 12:38:58;;;;;;;1.85;1.17;;;30.10;50.00;;;;;;4907163;29;20032;-76
2021/08/11 12:41:25;;;;;;;0.17;0.17;;;29.50;50.90;;;;;;4931676;29;20028;-77
2021/08/11 12:43:53;;;;;;;2.10;0.35;;;29.80;50.80;;;;;;4933489;29;20032;-76
2021/08/11 12:46:42;;;;;;;0.00;0.00;;;30.10;50.40;;;;;;4916882;29;20028;-77
2021/08/11 12:49:38;;;;;;;0.10;0.10;;;30.10;50.10;;;;;;4937646;29;20511;-77
2021/08/11 12:52:16;;;;;;;0.00;0.00;;;30.10;50.50;;;;;;4925677;29;20032;-76
2021/08/11 12:55:08;;;;;;;0.52;0.52;;;30.20;50.80;;;;;;4923571;29;20024;-77
2021/08/11 12:57:40;;;;;;;0.73;0.57;;;30.30;51.40;;;;;;4926452;29;20036;-77